Time;durP1;ratioP1;P1;durP2;ratioP2;P2;SDS_P1;SDS_P2;PMS_P1;PMS_P2;Temp;Humidity;BMP_temperature;BMP_pressure;BME280_temperature;BME280_humidity;BME280_pressure;Samples;Min_cycle;Max_cycle;Signal;HPM_P1;HPM_P2
2021/06/07 00:01:39;;;;;;;34.63;27.27;;;16.30;99.90;;;;;;4974570;28;20835;-71
2021/06/07 00:04:07;;;;;;;33.23;27.47;;;16.30;99.90;;;;;;4974118;28;20910;-70
2021/06/07 00:06:33;;;;;;;29.03;25.73;;;16.30;99.90;;;;;;4974082;28;20451;-71
2021/06/07 00:08:59;;;;;;;32.03;28.50;;;16.30;99.90;;;;;;4973711;28;20913;-70
2021/06/07 00:11:25;;;;;;;38.10;29.60;;;16.30;99.90;;;;;;4974089;28;20234;-71
2021/06/07 00:13:52;;;;;;;36.10;27.90;;;16.40;99.90;;;;;;4973896;28;20845;-70
2021/06/07 00:16:18;;;;;;;36.40;28.97;;;16.30;99.90;;;;;;4973689;28;20533;-70
2021/06/07 00:18:45;;;;;;;33.47;29.67;;;16.30;99.90;;;;;;4973234;28;20478;-70
2021/06/07 00:21:16;;;;;;;39.10;28.83;;;16.30;99.90;;;;;;4973698;28;20427;-70
2021/06/07 00:23:42;;;;;;;35.10;26.90;;;16.30;99.90;;;;;;4973671;28;20433;-70
2021/06/07 00:26:08;;;;;;;31.80;28.03;;;16.20;99.90;;;;;;4973910;28;20470;-71
2021/06/07 00:28:33;;;;;;;32.07;28.87;;;16.20;99.90;;;;;;4973303;28;20423;-70
2021/06/07 00:31:01;;;;;;;30.23;26.93;;;16.30;99.90;;;;;;4973902;28;20652;-70
2021/06/07 00:33:27;;;;;;;29.00;25.60;;;16.30;99.90;;;;;;4973525;28;20207;-70
2021/06/07 00:35:53;;;;;;;36.73;28.03;;;16.30;99.90;;;;;;4973162;28;20503;-70
2021/06/07 00:38:18;;;;;;;31.43;26.70;;;16.30;99.90;;;;;;4984405;28;20454;-71
2021/06/07 00:40:44;;;;;;;32.17;26.20;;;16.30;99.90;;;;;;4992654;28;20171;-69
2021/06/07 00:43:09;;;;;;;30.23;27.07;;;16.40;99.90;;;;;;4992745;28;20171;-70
2021/06/07 00:45:37;;;;;;;30.67;25.77;;;16.30;99.90;;;;;;4992631;28;20194;-70
2021/06/07 00:48:04;;;;;;;33.53;27.60;;;16.30;99.90;;;;;;4992323;28;20206;-71
2021/06/07 00:50:32;;;;;;;32.23;28.40;;;16.20;99.90;;;;;;4992410;28;20423;-70
2021/06/07 00:53:04;;;;;;;34.63;30.90;;;16.20;99.90;;;;;;4992575;28;20465;-70
2021/06/07 00:55:58;;;;;;;38.07;28.60;;;16.20;99.90;;;;;;4977390;28;20443;-70
2021/06/07 00:58:28;;;;;;;33.93;28.00;;;16.20;99.90;;;;;;4971757;28;20518;-71
2021/06/07 01:00:54;;;;;;;30.73;26.90;;;16.20;99.90;;;;;;4972894;28;20486;-70
2021/06/07 01:03:21;;;;;;;37.20;30.13;;;16.20;99.90;;;;;;4973028;28;20912;-70
2021/06/07 01:05:48;;;;;;;34.33;30.50;;;16.20;99.90;;;;;;4972703;28;20475;-71
2021/06/07 01:08:15;;;;;;;33.83;28.57;;;16.20;99.90;;;;;;4972747;28;20423;-70
2021/06/07 01:10:41;;;;;;;30.90;27.60;;;16.20;99.90;;;;;;4972805;28;20419;-70
2021/06/07 01:13:08;;;;;;;36.23;27.87;;;16.20;99.90;;;;;;4971514;28;20578;-71
2021/06/07 01:15:34;;;;;;;35.67;26.80;;;16.20;99.90;;;;;;4972596;28;20486;-69
2021/06/07 01:18:00;;;;;;;37.53;30.27;;;16.20;99.90;;;;;;4972431;28;20459;-70
2021/06/07 01:20:26;;;;;;;34.73;27.97;;;16.20;99.90;;;;;;4972681;28;20165;-70
2021/06/07 01:22:52;;;;;;;36.83;27.60;;;16.20;99.90;;;;;;4972785;28;20524;-70
2021/06/07 01:25:40;;;;;;;32.90;27.37;;;16.30;99.90;;;;;;4972432;28;20516;-70
2021/06/07 01:28:07;;;;;;;35.80;27.30;;;16.20;99.90;;;;;;4972215;28;20487;-71
2021/06/07 01:30:36;;;;;;;32.00;28.03;;;16.30;99.90;;;;;;4972717;28;20442;-72
2021/06/07 01:33:06;;;;;;;31.97;28.57;;;16.20;99.90;;;;;;4972571;28;20776;-71
2021/06/07 01:35:32;;;;;;;34.20;28.00;;;16.20;99.90;;;;;;4972228;28;20459;-70
2021/06/07 01:37:59;;;;;;;32.80;27.47;;;16.20;99.90;;;;;;4980784;28;20533;-70
2021/06/07 01:40:31;;;;;;;34.07;27.57;;;16.20;99.90;;;;;;4991798;28;20423;-70
2021/06/07 01:42:58;;;;;;;33.53;27.43;;;16.20;99.90;;;;;;4991858;28;20510;-70
2021/06/07 01:45:25;;;;;;;34.20;26.40;;;16.20;99.90;;;;;;4991933;28;20516;-72
2021/06/07 01:47:52;;;;;;;32.40;26.40;;;16.20;99.90;;;;;;4991354;28;20426;-71
2021/06/07 01:50:18;;;;;;;30.90;25.87;;;16.30;99.90;;;;;;4991141;28;20456;-70
2021/06/07 01:52:46;;;;;;;33.33;25.93;;;16.30;99.90;;;;;;4991395;28;20514;-70
2021/06/07 01:55:16;;;;;;;36.23;27.57;;;16.30;99.90;;;;;;4978909;28;20482;-72
2021/06/07 01:57:43;;;;;;;38.93;29.03;;;16.30;99.90;;;;;;4971698;28;20459;-71
2021/06/07 02:00:26;;;;;;;34.60;27.83;;;16.30;99.90;;;;;;4972228;28;20760;-70
2021/06/07 02:02:52;;;;;;;32.80;26.80;;;16.30;99.90;;;;;;4972012;28;20455;-71
2021/06/07 02:05:27;;;;;;;29.10;24.67;;;16.20;99.90;;;;;;4971929;28;20474;-70
2021/06/07 02:07:55;;;;;;;35.90;25.57;;;16.20;99.90;;;;;;4971823;28;20806;-70
2021/06/07 02:10:23;;;;;;;32.37;25.13;;;16.20;99.90;;;;;;4971998;28;20442;-71
2021/06/07 02:12:49;;;;;;;31.73;25.10;;;16.20;99.90;;;;;;4971921;28;20424;-71
2021/06/07 02:15:15;;;;;;;33.10;24.57;;;16.20;99.90;;;;;;4971938;28;20443;-70
2021/06/07 02:17:41;;;;;;;33.87;27.17;;;16.30;99.90;;;;;;4971443;28;20275;-70
2021/06/07 02:20:10;;;;;;;34.53;25.93;;;16.20;99.90;;;;;;4971874;28;20423;-70
2021/06/07 02:22:37;;;;;;;30.90;26.10;;;16.20;99.90;;;;;;4971882;28;20897;-71
2021/06/07 02:25:04;;;;;;;29.10;25.10;;;16.20;99.90;;;;;;4971794;28;20477;-70
2021/06/07 02:27:30;;;;;;;34.33;25.37;;;16.20;99.90;;;;;;4971460;28;20431;-70
2021/06/07 02:29:57;;;;;;;37.33;26.87;;;16.20;99.90;;;;;;4972274;28;20415;-70
2021/06/07 02:32:23;;;;;;;31.23;25.93;;;16.20;99.90;;;;;;4971901;28;20789;-71
2021/06/07 02:34:48;;;;;;;31.97;25.50;;;16.20;99.90;;;;;;4971714;28;20419;-71
2021/06/07 02:37:14;;;;;;;34.13;27.97;;;16.20;99.90;;;;;;4974164;28;20466;-70
2021/06/07 02:39:40;;;;;;;33.00;26.33;;;16.20;99.90;;;;;;4991120;28;20172;-71
2021/06/07 02:42:06;;;;;;;35.53;27.37;;;16.20;99.90;;;;;;4991197;28;20275;-70
2021/06/07 02:44:32;;;;;;;35.97;26.30;;;16.20;99.90;;;;;;4990986;28;20242;-71
2021/06/07 02:46:57;;;;;;;32.40;25.87;;;16.10;99.90;;;;;;4990961;28;20519;-70
2021/06/07 02:49:23;;;;;;;34.23;27.07;;;16.10;99.90;;;;;;4990853;28;20187;-70
2021/06/07 02:51:48;;;;;;;37.23;26.47;;;16.20;99.90;;;;;;4991192;28;20541;-70
2021/06/07 02:54:14;;;;;;;32.20;26.20;;;16.20;99.90;;;;;;4986202;28;20177;-70
2021/06/07 02:56:39;;;;;;;35.20;26.30;;;16.20;99.90;;;;;;4971761;28;20719;-70
2021/06/07 02:59:05;;;;;;;32.30;24.90;;;16.20;99.90;;;;;;4971259;28;20657;-71
2021/06/07 03:01:31;;;;;;;34.47;27.83;;;16.20;99.90;;;;;;4971569;28;20662;-70
2021/06/07 03:03:56;;;;;;;30.37;24.40;;;16.10;99.90;;;;;;4975139;28;20239;-70
2021/06/07 03:06:22;;;;;;;35.00;28.10;;;16.10;99.90;;;;;;4975048;28;20255;-71
2021/06/07 03:08:47;;;;;;;37.97;26.17;;;16.10;99.90;;;;;;4974910;28;20201;-70
2021/06/07 03:11:13;;;;;;;39.50;28.00;;;16.10;99.90;;;;;;4975032;28;20176;-70
2021/06/07 03:13:40;;;;;;;36.63;27.50;;;16.20;99.90;;;;;;4974981;28;20682;-70
2021/06/07 03:16:06;;;;;;;36.50;26.87;;;16.20;99.90;;;;;;4974926;28;20200;-71
2021/06/07 03:18:32;;;;;;;36.70;29.63;;;16.20;99.90;;;;;;4974722;28;20763;-70
2021/06/07 03:20:58;;;;;;;35.57;27.83;;;16.20;99.90;;;;;;4974803;28;20416;-70
2021/06/07 03:23:30;;;;;;;38.27;28.50;;;16.30;99.90;;;;;;4974886;28;20227;-70
2021/06/07 03:25:55;;;;;;;40.47;28.90;;;16.20;99.90;;;;;;4974696;28;20440;-71
2021/06/07 03:28:22;;;;;;;43.07;29.97;;;16.10;99.90;;;;;;4974296;28;20427;-71
2021/06/07 03:30:50;;;;;;;41.20;30.70;;;16.10;99.90;;;;;;4974833;28;20567;-72
2021/06/07 03:33:16;;;;;;;38.97;28.27;;;16.10;99.90;;;;;;4974975;28;20953;-70
2021/06/07 03:35:46;;;;;;;36.37;29.27;;;16.00;99.90;;;;;;4974485;28;20459;-70
2021/06/07 03:38:14;;;;;;;49.20;32.77;;;16.00;99.90;;;;;;4985077;28;20176;-71
2021/06/07 03:40:42;;;;;;;42.03;32.60;;;16.00;99.90;;;;;;4993802;28;20924;-71
2021/06/07 03:43:08;;;;;;;43.03;31.60;;;16.10;99.90;;;;;;4994047;28;20425;-70
2021/06/07 03:45:34;;;;;;;46.70;29.80;;;16.10;99.90;;;;;;4993800;28;20831;-71
2021/06/07 03:48:00;;;;;;;38.47;30.70;;;16.10;99.90;;;;;;4993718;28;20434;-71
2021/06/07 03:50:27;;;;;;;37.93;28.77;;;16.10;99.90;;;;;;4993723;28;20423;-70
2021/06/07 03:52:53;;;;;;;43.37;29.70;;;16.10;99.90;;;;;;4994941;28;20553;-70
2021/06/07 03:55:21;;;;;;;40.50;33.47;;;16.10;99.90;;;;;;4999656;28;20541;-71
2021/06/07 03:57:46;;;;;;;36.27;31.27;;;16.20;99.90;;;;;;4993252;28;20254;-71
2021/06/07 04:00:15;;;;;;;45.53;31.40;;;16.20;99.90;;;;;;4993821;28;20923;-71
2021/06/07 04:02:42;;;;;;;42.47;31.80;;;16.20;99.90;;;;;;4993463;28;20234;-70
2021/06/07 04:05:09;;;;;;;39.97;30.40;;;16.20;99.90;;;;;;4993473;28;20438;-70
2021/06/07 04:07:35;;;;;;;38.77;31.53;;;16.20;99.90;;;;;;4993417;28;20450;-70
2021/06/07 04:10:04;;;;;;;37.47;29.87;;;16.20;99.90;;;;;;4993592;28;20422;-70
2021/06/07 04:12:29;;;;;;;42.93;30.93;;;16.20;99.90;;;;;;4993405;28;20418;-71
2021/06/07 04:14:55;;;;;;;37.30;29.27;;;16.10;99.90;;;;;;5006689;28;20993;-70
2021/06/07 04:17:20;;;;;;;37.50;28.57;;;16.10;99.90;;;;;;5012394;28;20261;-70
2021/06/07 04:19:46;;;;;;;37.00;29.20;;;16.00;99.90;;;;;;5012814;28;20275;-71
2021/06/07 04:22:12;;;;;;;40.73;30.70;;;16.10;99.90;;;;;;5012778;28;20167;-70
2021/06/07 04:24:37;;;;;;;37.13;27.40;;;16.10;99.90;;;;;;5012704;28;20217;-70
2021/06/07 04:27:04;;;;;;;35.47;28.37;;;16.10;99.90;;;;;;5012542;28;20199;-71
2021/06/07 04:29:29;;;;;;;37.60;28.80;;;16.10;99.90;;;;;;4994431;28;20179;-70
2021/06/07 04:31:55;;;;;;;41.10;29.50;;;16.10;99.90;;;;;;4993159;28;20786;-71
2021/06/07 04:34:20;;;;;;;37.40;30.00;;;16.20;99.90;;;;;;4992825;28;20180;-72
2021/06/07 04:36:46;;;;;;;39.50;29.40;;;16.10;99.90;;;;;;4992785;28;20239;-70
2021/06/07 04:39:11;;;;;;;36.97;28.40;;;16.20;99.90;;;;;;4974028;28;20693;-70
2021/06/07 04:41:38;;;;;;;39.90;28.93;;;16.20;99.90;;;;;;4973427;28;20179;-72
2021/06/07 04:44:03;;;;;;;35.77;28.33;;;16.20;99.90;;;;;;4973157;28;20172;-70
2021/06/07 04:46:29;;;;;;;35.83;28.63;;;16.20;99.90;;;;;;4972677;28;20458;-71
2021/06/07 04:48:54;;;;;;;36.97;26.93;;;16.20;99.90;;;;;;4973048;28;20180;-70
2021/06/07 04:51:20;;;;;;;36.47;27.40;;;16.10;99.90;;;;;;4973324;28;20172;-70
2021/06/07 04:53:46;;;;;;;43.80;31.60;;;16.20;99.90;;;;;;4974366;28;20227;-71
2021/06/07 04:56:11;;;;;;;31.10;25.10;;;16.20;99.90;;;;;;4992474;28;20711;-70
2021/06/07 04:58:37;;;;;;;35.90;27.67;;;16.20;99.90;;;;;;4992189;28;20182;-71
2021/06/07 05:01:06;;;;;;;32.80;25.43;;;16.30;99.90;;;;;;4992415;28;20226;-72
2021/06/07 05:03:32;;;;;;;28.17;24.50;;;16.30;99.90;;;;;;4992548;28;20515;-70
2021/06/07 05:05:59;;;;;;;30.40;24.97;;;16.30;99.90;;;;;;4992464;28;20449;-71
2021/06/07 05:08:26;;;;;;;29.23;22.80;;;16.40;99.90;;;;;;4992022;28;20778;-71
2021/06/07 05:10:53;;;;;;;28.70;21.67;;;16.30;99.90;;;;;;4992738;28;20530;-70
2021/06/07 05:13:18;;;;;;;24.77;21.10;;;16.50;99.90;;;;;;4992366;28;20798;-70
2021/06/07 05:15:44;;;;;;;23.13;19.33;;;16.40;99.90;;;;;;4991968;28;20447;-70
2021/06/07 05:18:11;;;;;;;21.97;18.03;;;16.50;99.90;;;;;;4991828;28;20410;-68
2021/06/07 05:20:37;;;;;;;24.87;20.13;;;16.60;99.90;;;;;;4991787;28;20224;-68
2021/06/07 05:23:03;;;;;;;23.43;18.73;;;16.70;99.90;;;;;;4992129;28;20418;-68
2021/06/07 05:25:31;;;;;;;19.50;17.13;;;16.70;99.90;;;;;;4990911;28;20474;-67
2021/06/07 05:27:59;;;;;;;20.37;17.03;;;16.80;99.90;;;;;;4991823;28;20446;-68
2021/06/07 05:30:26;;;;;;;24.77;19.13;;;16.90;99.90;;;;;;4991781;28;20415;-67
2021/06/07 05:32:52;;;;;;;22.93;18.03;;;16.80;99.90;;;;;;4992000;28;20789;-68
2021/06/07 05:37:48;;;;;;;20.20;18.00;;;16.60;99.90;;;;;;4999688;28;20570;-65
2021/06/07 05:40:15;;;;;;;21.07;18.87;;;16.70;99.90;;;;;;4991719;28;20411;-65
2021/06/07 05:42:41;;;;;;;22.60;20.03;;;16.60;99.90;;;;;;4991713;28;20923;-65
2021/06/07 05:45:08;;;;;;;25.63;19.90;;;16.70;99.90;;;;;;4991533;28;20450;-65
2021/06/07 05:47:34;;;;;;;25.67;21.13;;;16.60;99.90;;;;;;4972126;28;20579;-62
2021/06/07 05:50:00;;;;;;;26.80;20.00;;;16.50;99.90;;;;;;4971952;28;20510;-62
2021/06/07 05:52:26;;;;;;;25.00;20.90;;;16.50;99.90;;;;;;4979858;28;20188;-63
2021/06/07 05:54:51;;;;;;;27.07;20.70;;;16.50;99.90;;;;;;4979371;28;20782;-62
2021/06/07 05:57:17;;;;;;;25.67;21.20;;;16.40;99.90;;;;;;4973996;28;20262;-64
2021/06/07 05:59:43;;;;;;;30.40;22.10;;;16.40;99.90;;;;;;4971783;28;20177;-64
2021/06/07 06:02:10;;;;;;;26.47;20.43;;;16.50;99.90;;;;;;4989824;28;20423;-63
2021/06/07 06:04:37;;;;;;;25.40;19.33;;;16.50;99.90;;;;;;4991111;28;20824;-63
2021/06/07 06:07:04;;;;;;;26.63;22.23;;;16.50;99.90;;;;;;4991278;28;20470;-62
2021/06/07 06:09:30;;;;;;;28.83;22.63;;;16.50;99.90;;;;;;4990322;28;20502;-63
2021/06/07 06:11:57;;;;;;;29.90;23.33;;;16.50;99.90;;;;;;4991003;28;20419;-62
2021/06/07 06:14:23;;;;;;;25.40;21.47;;;16.50;99.90;;;;;;4991171;28;20802;-61
2021/06/07 06:16:49;;;;;;;31.17;21.43;;;16.50;99.90;;;;;;4988734;28;20450;-63
2021/06/07 06:19:15;;;;;;;29.83;20.20;;;16.60;99.90;;;;;;4977053;28;20506;-62
2021/06/07 06:21:40;;;;;;;25.03;19.83;;;16.50;99.90;;;;;;4986899;28;20271;-63
2021/06/07 06:24:08;;;;;;;24.57;20.40;;;16.60;99.90;;;;;;4973650;28;20180;-63
2021/06/07 06:26:33;;;;;;;24.13;20.30;;;16.50;99.90;;;;;;4987854;28;20199;-62
2021/06/07 06:29:00;;;;;;;25.77;19.73;;;16.70;99.90;;;;;;4987007;28;20418;-63
2021/06/07 06:31:25;;;;;;;23.20;19.20;;;16.60;99.90;;;;;;4987416;28;20210;-62
2021/06/07 06:33:51;;;;;;;23.97;19.90;;;16.70;99.90;;;;;;4958335;28;20534;-59
2021/06/07 06:36:17;;;;;;;21.40;18.20;;;16.70;99.90;;;;;;4963828;28;20301;-62
2021/06/07 06:38:43;;;;;;;28.63;19.67;;;16.80;99.90;;;;;;4971374;28;20314;-62
2021/06/07 06:41:08;;;;;;;21.63;18.27;;;16.80;99.90;;;;;;4971068;28;20423;-59
2021/06/07 06:43:35;;;;;;;25.17;20.67;;;16.80;99.90;;;;;;4948445;28;21212;-63
2021/06/07 06:46:02;;;;;;;20.50;17.07;;;16.90;99.90;;;;;;4972541;28;20208;-63
2021/06/07 06:48:28;;;;;;;21.70;17.93;;;17.00;99.90;;;;;;4991213;28;20454;-61
2021/06/07 06:50:54;;;;;;;21.87;18.60;;;16.90;99.90;;;;;;4980260;28;20435;-62
2021/06/07 06:53:21;;;;;;;22.87;20.40;;;16.80;99.90;;;;;;4968809;28;20959;-61
2021/06/07 06:55:48;;;;;;;24.80;20.30;;;16.70;99.90;;;;;;4974488;28;20212;-62
2021/06/07 06:58:15;;;;;;;24.90;20.77;;;16.70;99.90;;;;;;4970673;28;20795;-61
2021/06/07 07:00:42;;;;;;;23.37;20.27;;;16.70;99.90;;;;;;4991187;28;20462;-62
2021/06/07 07:03:09;;;;;;;27.43;20.80;;;16.60;99.90;;;;;;4991502;28;20454;-62
2021/06/07 07:05:36;;;;;;;26.93;21.20;;;16.70;99.90;;;;;;4970560;28;21595;-62
2021/06/07 07:08:02;;;;;;;25.30;20.47;;;16.60;99.90;;;;;;4984222;28;21095;-61
2021/06/07 07:10:28;;;;;;;27.07;20.33;;;16.60;99.90;;;;;;4991714;28;20849;-62
2021/06/07 07:12:54;;;;;;;25.13;21.60;;;16.70;99.90;;;;;;4991396;28;20488;-62
2021/06/07 07:15:20;;;;;;;23.50;19.53;;;16.70;99.90;;;;;;4991557;28;20555;-62
2021/06/07 07:17:47;;;;;;;26.80;21.73;;;16.80;99.90;;;;;;4990722;28;20199;-62
2021/06/07 07:20:13;;;;;;;24.97;20.60;;;16.90;99.90;;;;;;4991230;28;20164;-62
2021/06/07 07:22:40;;;;;;;23.63;19.70;;;16.90;99.90;;;;;;4981486;28;20424;-62
2021/06/07 07:25:07;;;;;;;26.67;21.67;;;16.80;99.90;;;;;;4971470;28;20598;-62
2021/06/07 07:27:35;;;;;;;23.17;19.07;;;16.80;99.90;;;;;;4971400;28;20486;-63
2021/06/07 07:30:05;;;;;;;22.17;19.77;;;17.00;99.90;;;;;;4970391;28;20431;-62
2021/06/07 07:32:30;;;;;;;23.93;19.13;;;17.00;99.90;;;;;;4971594;28;20435;-62
2021/06/07 07:34:56;;;;;;;23.90;18.33;;;17.10;99.90;;;;;;4971184;28;20924;-61
2021/06/07 07:37:21;;;;;;;24.23;17.90;;;17.30;99.90;;;;;;4979034;28;20212;-62
2021/06/07 07:39:48;;;;;;;23.83;19.10;;;17.30;99.90;;;;;;4971132;28;20214;-61
2021/06/07 07:42:14;;;;;;;19.67;17.67;;;17.10;99.90;;;;;;4971476;28;20178;-61
2021/06/07 07:44:39;;;;;;;18.03;16.13;;;17.20;99.90;;;;;;4971076;28;20769;-62
2021/06/07 07:47:07;;;;;;;19.07;17.00;;;17.20;99.90;;;;;;4971154;28;20274;-62
2021/06/07 07:49:33;;;;;;;21.03;17.33;;;17.20;99.90;;;;;;4969790;28;20172;-61
2021/06/07 07:51:59;;;;;;;20.10;17.50;;;17.20;99.90;;;;;;4971696;28;20420;-62
2021/06/07 07:54:25;;;;;;;19.00;16.97;;;17.30;99.90;;;;;;4983515;28;20427;-62
2021/06/07 07:56:50;;;;;;;20.33;17.03;;;17.30;99.90;;;;;;4975460;28;20257;-61
2021/06/07 07:59:16;;;;;;;18.67;16.80;;;17.30;99.90;;;;;;4989302;28;20246;-62
2021/06/07 08:01:42;;;;;;;20.10;18.03;;;17.40;99.90;;;;;;4978905;28;20204;-61
2021/06/07 08:04:08;;;;;;;19.43;16.93;;;17.40;99.90;;;;;;4988224;28;20191;-62
2021/06/07 08:06:34;;;;;;;20.20;18.07;;;17.40;99.90;;;;;;4981838;28;20970;-62
2021/06/07 08:09:00;;;;;;;18.70;16.90;;;17.40;99.90;;;;;;4986804;28;20490;-62
2021/06/07 08:11:26;;;;;;;21.60;18.20;;;17.30;99.90;;;;;;4977317;28;20917;-63
2021/06/07 08:13:52;;;;;;;19.77;17.70;;;17.20;99.90;;;;;;4966756;28;20195;-62
2021/06/07 08:16:18;;;;;;;19.53;17.30;;;17.20;99.90;;;;;;4985280;28;20211;-61
2021/06/07 08:18:43;;;;;;;20.20;14.90;;;17.30;99.90;;;;;;4979336;28;20182;-63
2021/06/07 08:21:09;;;;;;;19.30;16.60;;;17.30;99.90;;;;;;4980160;28;20509;-62
2021/06/07 08:23:35;;;;;;;17.03;15.17;;;17.30;99.90;;;;;;4969479;28;20303;-62
2021/06/07 08:26:00;;;;;;;18.40;16.40;;;17.30;99.90;;;;;;4978419;28;20215;-62
2021/06/07 08:28:26;;;;;;;16.17;14.47;;;17.30;99.90;;;;;;4977145;28;20186;-62
2021/06/07 08:30:52;;;;;;;16.67;14.97;;;17.30;99.90;;;;;;4972720;28;20183;-60
2021/06/07 08:33:17;;;;;;;15.37;13.73;;;17.40;99.90;;;;;;4985988;28;20206;-62
2021/06/07 08:35:43;;;;;;;15.83;14.13;;;17.40;99.90;;;;;;4979470;28;20223;-62
2021/06/07 08:38:08;;;;;;;14.77;13.17;;;17.50;99.90;;;;;;4970609;28;20275;-62
2021/06/07 08:40:34;;;;;;;12.47;10.93;;;17.70;99.90;;;;;;4976171;28;20223;-61
2021/06/07 08:43:00;;;;;;;11.43;10.33;;;17.80;99.90;;;;;;4978194;28;20655;-62
2021/06/07 08:45:26;;;;;;;11.47;10.37;;;17.80;99.90;;;;;;4988169;28;20262;-62
2021/06/07 08:47:52;;;;;;;14.17;12.73;;;17.90;99.90;;;;;;4977416;28;20199;-62
2021/06/07 08:50:26;;;;;;;13.70;12.30;;;18.00;99.90;;;;;;4981735;28;20202;-62
2021/06/07 08:52:51;;;;;;;10.97;9.97;;;18.10;99.90;;;;;;4978649;28;20462;-63
2021/06/07 08:55:19;;;;;;;10.57;9.53;;;18.20;99.90;;;;;;4974410;28;20466;-63
2021/06/07 08:57:48;;;;;;;10.37;9.37;;;18.40;99.90;;;;;;4968537;28;20203;-64
2021/06/07 09:00:21;;;;;;;9.20;8.30;;;18.50;99.90;;;;;;4968419;28;20438;-64
2021/06/07 09:02:48;;;;;;;9.47;8.57;;;18.70;99.90;;;;;;4967399;28;20455;-63
2021/06/07 09:05:14;;;;;;;8.90;8.10;;;18.80;99.90;;;;;;4984996;28;20485;-64
2021/06/07 09:08:01;;;;;;;10.87;9.77;;;18.90;99.90;;;;;;4976593;28;20955;-63
2021/06/07 09:10:30;;;;;;;9.97;9.07;;;18.90;99.90;;;;;;4976343;28;20436;-64
2021/06/07 09:13:03;;;;;;;10.60;9.50;;;18.70;99.90;;;;;;4968324;28;20436;-63
2021/06/07 09:15:35;;;;;;;10.50;9.50;;;18.70;99.90;;;;;;4968079;28;20498;-64
2021/06/07 09:18:03;;;;;;;11.63;10.47;;;18.60;99.90;;;;;;4977722;28;20467;-63
2021/06/07 09:20:29;;;;;;;11.40;10.20;;;18.50;99.90;;;;;;4987285;28;20923;-63
2021/06/07 09:23:05;;;;;;;9.53;8.70;;;18.60;99.90;;;;;;4980328;28;20493;-64
2021/06/07 09:25:36;;;;;;;11.23;10.13;;;18.70;99.90;;;;;;4968951;28;20431;-63
2021/06/07 09:28:19;;;;;;;11.93;10.80;;;18.80;99.90;;;;;;4968073;28;20784;-62
2021/06/07 09:30:45;;;;;;;12.07;11.07;;;18.70;99.90;;;;;;4976710;28;21011;-62
2021/06/07 09:33:30;;;;;;;16.50;14.80;;;18.70;99.90;;;;;;4978545;28;20534;-63
2021/06/07 09:36:18;;;;;;;13.80;12.37;;;18.60;99.90;;;;;;4987261;28;20222;-63
2021/06/07 09:39:06;;;;;;;15.43;13.90;;;18.40;99.90;;;;;;4976515;28;20940;-64
2021/06/07 09:41:33;;;;;;;16.03;13.90;;;18.40;99.90;;;;;;4969584;28;20789;-62
2021/06/07 09:44:03;;;;;;;14.80;12.57;;;18.40;99.90;;;;;;4975826;28;21790;-62
2021/06/07 09:46:31;;;;;;;14.53;13.10;;;18.40;99.90;;;;;;4982007;28;20565;-63
2021/06/07 09:49:11;;;;;;;14.50;13.10;;;18.50;99.90;;;;;;4979048;28;20434;-64
2021/06/07 09:51:39;;;;;;;15.30;13.80;;;18.60;99.90;;;;;;4985349;28;20450;-63
2021/06/07 09:54:06;;;;;;;16.23;14.60;;;18.50;99.90;;;;;;4970198;28;20522;-64
2021/06/07 09:56:46;;;;;;;15.47;13.83;;;18.60;99.90;;;;;;4967613;28;20899;-64
2021/06/07 09:59:31;;;;;;;17.40;15.60;;;18.50;99.90;;;;;;4974589;28;20431;-63
2021/06/07 10:01:58;;;;;;;15.17;13.70;;;18.60;99.90;;;;;;4971359;28;20446;-62
2021/06/07 10:04:46;;;;;;;17.50;15.80;;;18.60;99.90;;;;;;4978752;28;20437;-63
2021/06/07 10:07:12;;;;;;;18.07;16.27;;;18.60;99.90;;;;;;4978695;28;20449;-63
2021/06/07 10:09:38;;;;;;;16.57;14.87;;;18.60;99.90;;;;;;4976971;28;20426;-64
2021/06/07 10:12:23;;;;;;;17.50;15.53;;;18.60;99.90;;;;;;4981484;28;21151;-63
2021/06/07 10:14:49;;;;;;;16.07;14.37;;;18.70;99.90;;;;;;4967715;28;20184;-63
2021/06/07 10:17:14;;;;;;;17.27;15.57;;;18.70;99.90;;;;;;4964231;28;20988;-62
2021/06/07 10:19:47;;;;;;;18.10;15.70;;;18.80;99.90;;;;;;4973316;28;20188;-64
2021/06/07 10:22:14;;;;;;;17.17;15.37;;;18.70;99.90;;;;;;4973638;28;20262;-64
2021/06/07 10:24:40;;;;;;;18.97;17.00;;;18.80;99.90;;;;;;4968365;28;20427;-63
2021/06/07 10:27:07;;;;;;;16.27;14.77;;;18.90;99.90;;;;;;4983393;28;20451;-62
2021/06/07 10:29:34;;;;;;;17.03;15.40;;;19.10;99.90;;;;;;4982313;28;20481;-64
2021/06/07 10:32:13;;;;;;;15.33;13.93;;;19.10;99.90;;;;;;4978427;28;20554;-63
2021/06/07 10:34:52;;;;;;;15.80;14.30;;;19.20;99.90;;;;;;4977475;28;20812;-64
2021/06/07 10:37:18;;;;;;;15.27;13.77;;;19.30;99.90;;;;;;4985964;28;20470;-63
2021/06/07 10:39:44;;;;;;;17.80;16.10;;;19.40;99.90;;;;;;4968265;28;20474;-63
2021/06/07 10:42:11;;;;;;;17.33;15.13;;;19.60;99.90;;;;;;4973365;28;20634;-64
2021/06/07 10:44:39;;;;;;;17.10;15.40;;;19.80;99.90;;;;;;4981381;28;20431;-64
2021/06/07 10:47:07;;;;;;;16.60;14.90;;;19.60;99.90;;;;;;4974713;28;20537;-63
2021/06/07 10:49:45;;;;;;;22.77;15.80;;;19.60;99.90;;;;;;4974305;28;20492;-64
2021/06/07 10:52:22;;;;;;;15.70;14.30;;;19.60;99.90;;;;;;4970693;28;20481;-63
2021/06/07 10:54:58;;;;;;;16.33;14.60;;;19.50;99.90;;;;;;4966842;28;20427;-63
2021/06/07 10:57:46;;;;;;;16.93;15.37;;;19.50;99.90;;;;;;4974419;28;20473;-63
2021/06/07 11:00:24;;;;;;;16.50;14.80;;;19.50;99.90;;;;;;4976280;28;20453;-63
2021/06/07 11:02:54;;;;;;;15.93;14.37;;;19.50;99.90;;;;;;4975979;28;20467;-64
2021/06/07 11:05:25;;;;;;;17.27;15.57;;;19.50;99.90;;;;;;4983377;28;20466;-64
2021/06/07 11:08:29;;;;;;;19.13;17.43;;;19.30;99.90;;;;;;4966542;28;20432;-64
2021/06/07 11:11:04;;;;;;;20.10;18.10;;;19.10;99.90;;;;;;4981940;28;20430;-66
2021/06/07 11:13:34;;;;;;;18.73;16.93;;;19.00;99.90;;;;;;4983790;28;20441;-62
2021/06/07 11:16:02;;;;;;;19.93;18.13;;;18.90;99.90;;;;;;4970844;28;20478;-62
2021/06/07 11:18:33;;;;;;;18.50;16.80;;;18.90;99.90;;;;;;4975490;28;20853;-62
2021/06/07 11:21:21;;;;;;;17.60;16.00;;;18.90;99.90;;;;;;4982416;28;20432;-62
2021/06/07 11:23:47;;;;;;;18.53;16.67;;;18.90;99.90;;;;;;4974177;28;20939;-63
2021/06/07 11:26:18;;;;;;;19.87;16.27;;;18.90;99.90;;;;;;4987482;28;20469;-61
2021/06/07 11:28:48;;;;;;;15.83;14.23;;;19.00;99.90;;;;;;4983712;28;20184;-62
2021/06/07 11:31:19;;;;;;;17.53;15.73;;;19.20;99.90;;;;;;4987750;28;20966;-63
2021/06/07 11:33:54;;;;;;;17.60;15.90;;;19.40;99.90;;;;;;4978786;28;20542;-61
2021/06/07 11:36:41;;;;;;;17.40;15.80;;;19.40;99.90;;;;;;4993424;23;20490;-64
2021/06/07 11:39:09;;;;;;;16.10;14.53;;;19.50;99.90;;;;;;4961325;28;20438;-64
2021/06/07 11:42:03;;;;;;;17.33;15.63;;;19.60;99.90;;;;;;4969275;28;21003;-65
2021/06/07 11:44:44;;;;;;;15.53;14.13;;;19.50;99.90;;;;;;4958256;28;20435;-68
2021/06/07 11:47:14;;;;;;;15.97;14.37;;;19.50;99.90;;;;;;4969986;28;20975;-68
2021/06/07 11:49:58;;;;;;;18.23;16.47;;;19.60;99.90;;;;;;4969636;28;21200;-68
2021/06/07 11:52:32;;;;;;;22.37;18.87;;;19.80;99.90;;;;;;4967706;28;20431;-66
2021/06/07 11:55:17;;;;;;;16.60;15.07;;;20.10;99.90;;;;;;4969981;28;20505;-68
2021/06/07 11:57:43;;;;;;;16.60;15.10;;;20.50;99.90;;;;;;4969222;28;21042;-68
2021/06/07 12:00:09;;;;;;;16.57;14.80;;;20.90;99.90;;;;;;4969818;28;20430;-67
2021/06/07 12:02:36;;;;;;;14.50;13.10;;;21.00;99.90;;;;;;4966693;28;20172;-67
2021/06/07 12:05:06;;;;;;;14.23;12.93;;;21.10;99.90;;;;;;4969465;28;20836;-68
2021/06/07 12:07:34;;;;;;;14.67;13.33;;;21.00;99.90;;;;;;4969341;28;20450;-65
2021/06/07 12:10:00;;;;;;;14.63;13.30;;;21.10;99.90;;;;;;4969158;28;20474;-65
2021/06/07 12:12:27;;;;;;;15.80;14.40;;;21.20;99.90;;;;;;4967428;28;20514;-65
2021/06/07 12:14:53;;;;;;;14.60;13.40;;;20.80;99.90;;;;;;4969639;28;20188;-65
2021/06/07 12:17:21;;;;;;;16.23;13.67;;;20.40;99.90;;;;;;4969540;28;20467;-66
2021/06/07 12:19:57;;;;;;;15.00;13.70;;;20.30;99.90;;;;;;4968671;28;20175;-65
2021/06/07 12:22:51;;;;;;;15.77;14.40;;;20.20;99.90;;;;;;4967144;28;20431;-65
2021/06/07 12:30:43;;;;;;;17.07;15.50;;;20.50;99.90;;;;;;4969054;28;20434;-66
2021/06/07 12:33:09;;;;;;;16.80;15.17;;;20.60;99.90;;;;;;4972458;28;20429;-66
2021/06/07 12:35:36;;;;;;;15.90;14.50;;;20.80;99.90;;;;;;4968706;28;20431;-66
2021/06/07 12:38:03;;;;;;;15.87;14.17;;;20.80;99.90;;;;;;4968077;28;20482;-65
2021/06/07 12:40:46;;;;;;;15.97;14.50;;;21.10;99.90;;;;;;4975457;28;20571;-65
2021/06/07 12:43:18;;;;;;;16.63;14.97;;;21.20;99.90;;;;;;4966674;28;20430;-65